Latest Coastal Weather Observations for Brisbane Airport

IDQ60701

Issued at 3:31 am EST Monday 20 April 2015 (issued every 10 minutes, with the page automatically refreshed every 10 minutes)

About coastal observations | Map of coastal stations | Coastal observations for QLD | Marine services | Other Formats
Station Details ID: 040842 Name: BRISBANE AERO Lat: -27.39 Lon: 153.13 Height: 4.51 m
Data from the previous 72 hours. | See also: Recent months at Brisbane Airport
Date/Time
EST
Temp

°C
Wind Pressure Rain
since 9am
mm
Weather Cloud Vis
km
Sea
Height
m
Swell
Dir
 
Speed
knots
Gust
knots
hPa Trend Height
m
Period
s
Dir
20/03:00am 20.6 SW 13 17 1016.9 R 2.4 Distant precip. Mostly cloudy 25 - - - -
20/02:30am 21.3 SW 9 12 1016.7 - 2.4 - Mostly clear 10 - - - -
20/02:00am 21.4 SW 9 11 1016.8 - 2.4 - Mostly clear 10 - - - -
20/01:30am 21.2 SSW 9 12 1016.5 - 2.4 - Mostly clear 10 - - - -
20/01:00am 20.6 SW 8 12 1016.8 - 2.4 - Mostly clear 10 - - - -
 
Date/Time
EST
Temp

°C
Wind Pressure Rain
since 9am
mm
Weather Cloud Vis
km
Sea
Height
m
Swell
Dir
 
Speed
knots
Gust
knots
hPa Trend Height
m
Period
s
Dir
19/11:30pm 22.2 SW 3 5 1017.9 - 1.8 Showers Partly cloudy 10 - - - -
19/11:00pm 23.1 WNW 3 4 1018.1 - 1.8 Showers Mostly clear 10 - - - -
19/10:30pm 23.5 WNW 4 5 1018.2 - 1.6 - Mostly clear 10 - - - -
19/10:00pm 23.3 N 4 5 1018.1 - 1.6 - Mostly clear 10 - - - -
19/09:30pm 23.4 N 6 6 1018.5 - 1.6 - Mostly clear 10 - - - -
19/09:00pm 23.4 N 6 8 1018.5 F 1.6 Distant precip. Mostly cloudy 25 - - - -
19/08:30pm 23.4 N 7 9 1018.4 - 1.6 - Mostly clear 10 - - - -
19/08:00pm 23.1 N 7 7 1018.2 - 1.6 - Mostly clear 10 - - - -
19/07:30pm 23.1 N 5 10 1018.3 - 1.6 - Mostly clear 10 - - - -
19/07:00pm 22.9 NNE 7 8 1017.9 - 1.6 - Partly cloudy 10 - - - -
19/06:30pm 22.8 NNE 6 8 1017.2 - 1.6 - Mostly clear 10 - - - -
19/06:00pm 22.8 N 7 8 1017.2 F 1.6 Distant precip. Mostly cloudy 25 - - - -
19/05:30pm 23.0 N 6 8 1017.0 - 1.6 - Mostly clear 10 - - - -
19/05:00pm 22.7 ENE 7 8 1016.9 - 1.6 - Mostly clear 10 - - - -
19/04:30pm 24.4 NNE 8 11 1016.7 - 0.0 Showers Mostly clear 10 - - - -
19/04:00pm 24.7 NNE 10 13 1016.2 - 0.0 - Mostly clear 10 - - - -
19/03:30pm 25.1 N 9 12 1016.2 - 0.0 - Mostly clear 10 - - - -
19/03:00pm 25.4 NNE 10 13 1016.3 F 0.0 Fine Mostly cloudy 30 - - - -
19/02:30pm 25.8 NNE 10 14 1016.3 - 0.0 - Mostly clear 10 - - - -
19/02:00pm 26.1 NE 11 14 1016.3 - 0.0 - Mostly clear 10 - - - -
19/01:30pm 26.1 NNE 9 13 1016.7 - 0.0 - Mostly clear 10 - - - -
19/01:00pm 27.1 NNE 8 11 1017.2 - 0.0 - Mostly clear 10 - - - -
19/12:30pm 26.2 NE 8 9 1017.3 - 0.0 - Mostly clear 10 - - - -
19/12:00pm 26.0 NNE 7 10 1018.1 S 0.0 Fine Mostly cloudy 30 - - - -
19/11:30am 26.7 NNW 8 15 1018.6 - 0.0 - Mostly clear 10 - - - -
19/11:00am 26.7 NNW 6 10 1018.9 - 0.0 - Mostly clear 10 - - - -
19/10:30am 25.8 SW 5 8 1019.1 - 0.0 - Mostly clear 10 - - - -
19/10:00am 24.5 SW 7 10 1019.4 - 0.0 - Mostly clear 10 - - - -
19/09:30am 24.2 SW 7 9 1019.6 - 0.0 - Mostly clear 10 - - - -
19/09:00am 23.2 SSW 4 6 1019.5 S 0.0 Haze Mostly cloudy 25 - - - -
19/08:30am 22.9 SSW 5 6 1019.7 - 0.0 - Mostly clear 10 - - - -
19/08:00am 22.3 SW 6 8 1019.5 - 0.0 - Mostly clear 10 - - - -
19/07:30am 22.0 SW 5 6 1019.4 - 0.0 - Mostly clear 10 - - - -
19/07:00am 21.1 WSW 5 7 1019.0 - 0.0 - Mostly clear 10 - - - -
19/06:30am 19.3 CALM 0 0 1018.6 - 0.0 - Mostly clear 10 - - - -
19/06:00am 19.3 SSW 3 4 1018.3 F 0.0 Fine Mostly cloudy 25 - - - -
19/05:30am 19.6 CALM 0 0 1018.3 - 0.0 - Mostly clear 10 - - - -
19/05:00am 20.1 CALM 0 0 1018.1 - 0.0 - Mostly clear 10 - - - -
19/04:30am 20.6 CALM 0 0 1018.1 - 0.0 - Mostly clear 10 - - - -
19/04:00am 21.3 CALM 0 0 1018.1 - 0.0 - Mostly clear 10 - - - -
19/03:30am 21.1 N 4 5 1018.3 - 0.0 - Mostly clear 10 - - - -
19/03:00am 20.9 N 8 9 1018.5 F 0.0 Distant precip. Partly cloudy 25 - - - -
19/02:30am 21.6 N 7 9 1018.6 - 0.0 Showers Mostly clear 10 - - - -
19/02:00am 21.9 NNW 5 6 1018.8 - 0.0 Showers Mostly clear 10 - - - -
19/01:30am 22.6 NNE 6 8 1019.4 - 0.0 Showers Partly cloudy 10 - - - -
19/01:00am 22.8 NNE 9 11 1019.6 - 0.0 - Mostly clear 10 - - - -
19/12:30am 22.4 NE 6 8 1019.9 - 0.0 - Mostly clear 10 - - - -
19/12:00am 22.6 NE 8 9 1020.0 F 0.0 Fine Partly cloudy 25 - - - -
 
Date/Time
EST
Temp

°C
Wind Pressure Rain
since 9am
mm
Weather Cloud Vis
km
Sea
Height
m
Swell
Dir
 
Speed
knots
Gust
knots
hPa Trend Height
m
Period
s
Dir
18/11:30pm 22.8 NE 10 15 1020.4 - 0.0 - Mostly clear 10 - - - -
18/11:00pm 22.7 NNE 12 16 1020.4 - 0.0 Showers Mostly clear 10 - - - -
18/10:30pm 22.4 NE 14 18 1020.4 - 0.0 - Mostly clear 10 - - - -
18/10:00pm 22.8 NNE 11 16 1020.7 - 0.0 - Mostly clear 10 - - - -
18/09:30pm 22.8 NNE 10 16 1020.7 - 0.0 - Mostly clear 10 - - - -
18/09:00pm 23.0 NE 12 15 1020.7 F 0.0 Fine Mostly cloudy 25 - - - -
18/08:30pm 23.2 NE 11 16 1020.6 - 0.0 - Mostly clear 10 - - - -
18/08:00pm 23.1 NNE 11 16 1020.5 - 0.0 - Mostly clear 10 - - - -
18/07:30pm 23.0 NNE 11 16 1020.2 - 0.0 - Mostly clear 10 - - - -
18/07:00pm 23.3 NNE 10 14 1019.9 - 0.0 - Mostly clear 10 - - - -
18/06:30pm 23.0 NE 8 10 1019.6 - 0.0 - Mostly clear 10 - - - -
18/06:00pm 23.6 NE 9 12 1019.4 F 0.0 Fine Partly cloudy 30 - - - -
18/05:30pm 23.7 NE 9 13 1019.3 - 0.0 - Mostly clear 10 - - - -
18/05:00pm 24.2 NNE 9 12 1019.4 - 0.0 - Mostly clear 10 - - - -
18/04:30pm 25.1 NNE 11 14 1019.2 - 0.0 - Mostly clear 10 - - - -
18/04:00pm 25.2 NNE 10 14 1019.0 - 0.0 - Mostly clear 10 - - - -
18/03:30pm 25.6 NNE 9 12 1018.9 - 0.0 - Mostly clear 10 - - - -
18/03:00pm 26.0 NNE 9 10 1018.9 F 0.0 Haze Partly cloudy 30 - - - -
18/02:30pm 26.4 NE 9 13 1019.1 - 0.0 - Mostly clear 10 - - - -
18/02:00pm 26.2 NE 9 12 1019.1 - 0.0 - Mostly clear 10 - - - -
18/01:30pm 26.5 NE 9 15 1019.4 - 0.0 - Mostly clear 10 - - - -
18/01:00pm 26.7 NNE 11 14 1019.8 - 0.0 - Mostly clear 10 - - - -
18/12:30pm 26.3 NNE 10 15 1020.3 - 0.0 - Partly cloudy 10 - - - -
18/12:00pm 26.5 NNE 10 13 1020.9 F 0.0 Haze Partly cloudy 20 - - - -
18/11:30am 26.7 NE 9 13 1021.4 - 0.0 - Partly cloudy 10 - - - -
18/11:00am 26.1 NE 9 13 1021.8 - 0.0 - Partly cloudy 10 - - - -
18/10:30am 26.2 NNE 9 11 1022.3 - 0.0 - Mostly clear 10 - - - -
18/10:00am 25.9 NNE 7 10 1022.4 - 0.0 - Mostly clear 10 - - - -
18/09:30am 24.4 SW 2 5 1022.9 - 0.0 - Mostly clear 10 - - - -
18/09:00am 23.0 SSW 6 7 1022.7 R 4.8 Haze Partly cloudy 20 - - - -
18/08:30am 22.1 SSW 7 8 1022.7 - 4.8 - Mostly clear 10 - - - -
18/08:00am 21.1 SSW 5 7 1022.5 - 4.8 - Mostly clear 10 - - - -
18/07:30am 20.3 SSW 5 7 1022.3 - 4.8 - Mostly clear 10 - - - -
18/07:00am 19.3 SSW 6 7 1021.8 - 4.8 - Mostly clear 10 - - - -
18/06:30am 18.9 SSW 5 5 1021.6 - 4.8 - Mostly clear 10 - - - -
18/06:00am 19.5 S 4 5 1021.3 F 4.6 Distant precip. Partly cloudy 20 - - - -
18/05:30am 19.8 S 5 6 1021.3 - 4.6 - Partly cloudy 10 - - - -
18/05:00am 20.0 SSW 5 6 1021.1 - 4.6 - Partly cloudy 10 - - - -
18/04:30am 20.4 ESE 5 6 1021.1 - 4.6 - Mostly clear 10 - - - -
18/04:00am 20.8 ENE 6 8 1021.1 - 4.6 - Mostly clear 10 - - - -
18/03:30am 19.8 CALM 0 4 1021.2 - 3.0 Showers Mostly clear 8 - - - -
18/03:00am 20.3 S 3 5 1021.2 F 3.0 Distant precip. Partly cloudy 20 - - - -
18/02:30am 20.1 SSW 5 6 1021.5 - 3.0 - Partly cloudy 8 - - - -
18/02:00am 19.5 SSW 4 5 1021.7 - 2.8 - Partly cloudy 10 - - - -
18/01:30am 20.1 ESE 1 4 1022.0 - 2.8 - Partly cloudy 10 - - - -
18/01:00am 21.4 CALM 0 0 1022.1 - 2.8 - Partly cloudy 10 - - - -
18/12:30am 21.5 ESE 4 6 1022.2 - 2.8 - Cloudy 10 - - - -
18/12:00am 21.4 E 6 8 1022.6 R 2.8 Distant precip. Mostly cloudy 20 - - - -
 
Date/Time
EST
Temp

°C
Wind Pressure Rain
since 9am
mm
Weather Cloud Vis
km
Sea
Height
m
Swell
Dir
 
Speed
knots
Gust
knots
hPa Trend Height
m
Period
s
Dir
17/11:30pm 21.4 E 7 11 1022.8 - 2.8 - Mostly clear 10 - - - -
17/11:00pm 20.9 NNE 7 12 1023.0 - 2.8 - Mostly clear 10 - - - -
17/10:47pm 21.2 NNE 9 13 1022.9 - 2.8 - Mostly clear 8 - - - -
17/10:38pm 21.2 NE 3 10 1022.9 - 0.4 Showers Mostly clear 4 - - - -
17/10:30pm 21.7 CALM 0 0 1022.7 - 0.0 - Partly cloudy 10 - - - -
17/10:00pm 21.6 NNE 3 5 1022.8 - 0.0 - Partly cloudy 10 - - - -
17/09:30pm 21.9 NNE 9 12 1022.9 - 0.0 - Mostly clear 10 - - - -
17/09:00pm 23.2 ENE 6 13 1022.7 F 0.0 Fine Mostly cloudy 30 - - - -
17/08:30pm 23.0 E 4 6 1022.6 - 0.0 - Mostly clear 10 - - - -
17/08:00pm 22.7 E 5 6 1022.6 - 0.0 - Mostly clear 10 - - - -
17/07:30pm 22.8 E 5 6 1022.3 - 0.0 - Mostly clear 10 - - - -
17/07:00pm 22.9 E 5 6 1022.0 - 0.0 - Mostly clear 10 - - - -
17/06:30pm 22.9 ENE 5 7 1021.7 - 0.0 - Mostly clear 10 - - - -
17/06:00pm 23.4 ENE 7 10 1021.4 F 0.0 Fine Mostly clear 40 - - - -
17/05:30pm 23.5 ENE 9 13 1021.1 - 0.0 - Mostly clear 10 - - - -
17/05:00pm 24.0 ENE 8 13 1021.1 - 0.0 - Mostly clear 10 - - - -
17/04:30pm 24.6 ENE 9 13 1020.8 - 0.0 - Mostly clear 10 - - - -
17/04:00pm 24.5 ENE 9 13 1020.6 - 0.0 - Mostly clear 10 - - - -
17/03:30pm 25.2 ENE 9 14 1020.5 - 0.0 - Mostly clear 10 - - - -
17/03:00pm 25.4 ENE 10 14 1020.6 F 0.0 Fine Mostly clear 40 - - - -
17/02:30pm 25.8 ENE 9 15 1020.6 - 0.0 - Mostly clear 10 - - - -
17/02:00pm 25.6 NE 12 15 1020.6 - 0.0 - Mostly clear 10 - - - -
17/01:30pm 25.4 NE 11 13 1021.1 - 0.0 - Mostly clear 10 - - - -
17/01:00pm 25.7 NE 8 11 1021.3 - 0.0 - Mostly clear 10 - - - -
17/12:30pm 25.8 NNE 8 10 1021.8 - 0.0 - Mostly clear 10 - - - -
17/12:00pm 25.8 NE 7 10 1022.4 F 0.0 Fine Mostly clear 40 - - - -
17/11:30am 26.0 NE 7 9 1022.9 - 0.0 - Mostly clear 10 - - - -
17/11:00am 25.3 ENE 5 9 1023.5 - 0.0 - Mostly clear 10 - - - -
17/10:30am 25.3 ENE 6 8 1023.7 - 0.0 - Mostly clear 10 - - - -
17/10:00am 25.3 SSE 4 7 1024.0 - 0.0 - Mostly clear 10 - - - -
17/09:30am 24.0 S 3 6 1024.4 - 0.0 - Mostly clear 10 - - - -
17/09:00am 22.9 S 5 7 1024.4 R 0.0 Fine Partly cloudy 40 - - - -
17/08:30am 21.3 SSW 8 10 1024.7 - 0.0 - Mostly clear 10 - - - -
17/08:00am 20.0 SSW 11 15 1024.5 - 0.0 - Mostly clear 10 - - - -
17/07:30am 18.8 SSW 9 11 1024.2 - 0.0 - Mostly clear 10 - - - -
17/07:00am 18.2 SSW 8 10 1023.8 - 0.0 - Mostly clear 10 - - - -
17/06:30am 17.3 SSW 7 8 1023.5 - 0.0 - Mostly clear 10 - - - -
17/06:00am 16.9 SSW 5 6 1023.1 F 0.0 Fine Mostly clear 40 - - - -
17/05:30am 17.1 SSW 7 8 1022.9 - 0.0 - Mostly clear 10 - - - -
17/05:00am 16.6 SSW 7 8 1023.1 - 0.0 - Mostly clear 10 - - - -
17/04:30am 16.8 SSW 8 9 1022.7 - 0.0 - Mostly clear 10 - - - -
17/04:00am 17.1 SSW 7 8 1022.6 - 0.0 - Mostly clear 10 - - - -

Other Formats:

Comma delimited format used in spreadsheet applications
http://www.bom.gov.au/fwo/IDQ60701/IDQ60701.94578.axf

JavaScript Object Notation format (JSON) in row-major order
http://www.bom.gov.au/fwo/IDQ60701/IDQ60701.94578.json